sensor_id;sensor_type;location;lat;lon;timestamp;pressure;altitude;pressure_sealevel;temperature;humidity
45523;BME280;31254;51.680;5.394;2023-06-19T00:02:17;100811.97;;;22.72;55.01
45523;BME280;31254;51.680;5.394;2023-06-19T00:04:44;100817.75;;;22.70;55.16
45523;BME280;31254;51.680;5.394;2023-06-19T00:07:10;100799.69;;;22.61;55.61
45523;BME280;31254;51.680;5.394;2023-06-19T00:09:39;100811.44;;;22.63;55.54
45523;BME280;31254;51.680;5.394;2023-06-19T00:12:06;100812.81;;;22.54;55.58
45523;BME280;31254;51.680;5.394;2023-06-19T00:14:33;100814.56;;;22.48;55.40
45523;BME280;31254;51.680;5.394;2023-06-19T00:17:02;100830.63;;;22.46;55.93
45523;BME280;31254;51.680;5.394;2023-06-19T00:19:29;100723.97;;;21.78;55.69
45523;BME280;31254;51.680;5.394;2023-06-19T00:21:56;100832.63;;;22.39;55.70
45523;BME280;31254;51.680;5.394;2023-06-19T00:24:23;100823.31;;;22.26;56.05
45523;BME280;31254;51.680;5.394;2023-06-19T00:26:50;100838.25;;;22.32;56.05
45523;BME280;31254;51.680;5.394;2023-06-19T00:29:17;100827.16;;;22.32;56.12
45523;BME280;31254;51.680;5.394;2023-06-19T00:31:44;100827.75;;;22.34;56.23
45523;BME280;31254;51.680;5.394;2023-06-19T00:34:10;100835.72;;;22.31;56.21
45523;BME280;31254;51.680;5.394;2023-06-19T00:36:37;100833.19;;;22.22;56.61
45523;BME280;31254;51.680;5.394;2023-06-19T00:39:07;100837.03;;;22.21;56.61
45523;BME280;31254;51.680;5.394;2023-06-19T00:41:35;100850.94;;;22.21;56.88
45523;BME280;31254;51.680;5.394;2023-06-19T00:44:02;100844.63;;;22.07;57.27
45523;BME280;31254;51.680;5.394;2023-06-19T00:46:29;100849.09;;;22.08;57.14
45523;BME280;31254;51.680;5.394;2023-06-19T00:48:55;100865.16;;;22.06;57.18
45523;BME280;31254;51.680;5.394;2023-06-19T00:51:22;100872.00;;;22.04;57.47
45523;BME280;31254;51.680;5.394;2023-06-19T00:53:49;100869.06;;;21.99;57.87
45523;BME280;31254;51.680;5.394;2023-06-19T00:56:16;100844.66;;;21.76;57.78
45523;BME280;31254;51.680;5.394;2023-06-19T00:58:44;100878.94;;;21.88;57.92
45523;BME280;31254;51.680;5.394;2023-06-19T01:01:11;100868.50;;;21.83;57.93
45523;BME280;31254;51.680;5.394;2023-06-19T01:03:38;100866.22;;;21.73;57.89
45523;BME280;31254;51.680;5.394;2023-06-19T01:06:13;100886.72;;;21.79;58.16
45523;BME280;31254;51.680;5.394;2023-06-19T01:11:15;100854.63;;;21.51;58.82
45523;BME280;31254;51.680;5.394;2023-06-19T01:16:46;100873.19;;;21.58;58.74
45523;BME280;31254;51.680;5.394;2023-06-19T01:19:21;100873.63;;;21.54;59.08
45523;BME280;31254;51.680;5.394;2023-06-19T01:21:48;100889.84;;;21.58;59.16
45523;BME280;31254;51.680;5.394;2023-06-19T01:24:19;100892.84;;;21.49;59.53
45523;BME280;31254;51.680;5.394;2023-06-19T01:26:45;100884.53;;;21.43;59.38
45523;BME280;31254;51.680;5.394;2023-06-19T01:29:16;100892.84;;;21.43;59.71
45523;BME280;31254;51.680;5.394;2023-06-19T01:34:23;100894.38;;;21.39;59.99
45523;BME280;31254;51.680;5.394;2023-06-19T01:36:54;100906.09;;;21.41;59.91
45523;BME280;31254;51.680;5.394;2023-06-19T01:39:24;100889.88;;;21.37;60.64
45523;BME280;31254;51.680;5.394;2023-06-19T01:41:51;100914.59;;;21.46;60.48
45523;BME280;31254;51.680;5.394;2023-06-19T01:44:19;100901.38;;;21.41;61.15
45523;BME280;31254;51.680;5.394;2023-06-19T01:46:52;100909.50;;;21.49;61.70
45523;BME280;31254;51.680;5.394;2023-06-19T01:49:19;100906.09;;;21.41;61.65
45523;BME280;31254;51.680;5.394;2023-06-19T01:51:46;100895.22;;;21.39;62.19
45523;BME280;31254;51.680;5.394;2023-06-19T01:54:13;100913.34;;;21.42;62.40
45523;BME280;31254;51.680;5.394;2023-06-19T01:56:42;100879.50;;;21.19;62.92
45523;BME280;31254;51.680;5.394;2023-06-19T01:59:11;100900.22;;;21.24;63.28
45523;BME280;31254;51.680;5.394;2023-06-19T02:01:38;100923.66;;;21.28;63.48
45523;BME280;31254;51.680;5.394;2023-06-19T02:04:04;100914.72;;;21.19;63.69
45523;BME280;31254;51.680;5.394;2023-06-19T02:06:34;100926.84;;;21.25;63.71
45523;BME280;31254;51.680;5.394;2023-06-19T02:09:00;100923.03;;;21.26;63.80
45523;BME280;31254;51.680;5.394;2023-06-19T02:11:27;100924.28;;;21.30;63.57
45523;BME280;31254;51.680;5.394;2023-06-19T02:13:56;100938.13;;;21.36;63.69
45523;BME280;31254;51.680;5.394;2023-06-19T02:16:30;100933.00;;;21.40;63.69
45523;BME280;31254;51.680;5.394;2023-06-19T02:18:59;100925.75;;;21.32;64.11
45523;BME280;31254;51.680;5.394;2023-06-19T02:21:26;100919.38;;;21.32;64.29
45523;BME280;31254;51.680;5.394;2023-06-19T02:23:54;100931.28;;;21.39;64.25
45523;BME280;31254;51.680;5.394;2023-06-19T02:26:21;100934.50;;;21.36;64.30
45523;BME280;31254;51.680;5.394;2023-06-19T02:28:48;100925.97;;;21.31;64.49
45523;BME280;31254;51.680;5.394;2023-06-19T02:31:15;100919.19;;;21.27;64.86
45523;BME280;31254;51.680;5.394;2023-06-19T02:33:44;100926.19;;;21.29;64.81
45523;BME280;31254;51.680;5.394;2023-06-19T02:36:11;100922.19;;;21.25;65.13
45523;BME280;31254;51.680;5.394;2023-06-19T02:38:39;100936.03;;;21.32;65.47
45523;BME280;31254;51.680;5.394;2023-06-19T02:41:08;100929.41;;;21.26;65.73
45523;BME280;31254;51.680;5.394;2023-06-19T02:43:35;100916.88;;;21.10;66.03
45523;BME280;31254;51.680;5.394;2023-06-19T02:46:06;100925.19;;;21.10;66.38
45523;BME280;31254;51.680;5.394;2023-06-19T02:48:36;100925.44;;;21.02;66.57
45523;BME280;31254;51.680;5.394;2023-06-19T02:51:02;100841.94;;;20.52;66.88
45523;BME280;31254;51.680;5.394;2023-06-19T02:53:29;100925.25;;;20.90;67.29
45523;BME280;31254;51.680;5.394;2023-06-19T02:55:58;100931.66;;;20.84;67.23
45523;BME280;31254;51.680;5.394;2023-06-19T02:58:25;100943.84;;;20.83;67.19
45523;BME280;31254;51.680;5.394;2023-06-19T03:00:53;100948.31;;;20.77;67.45
45523;BME280;31254;51.680;5.394;2023-06-19T03:03:22;100946.78;;;20.75;68.12
45523;BME280;31254;51.680;5.394;2023-06-19T03:05:49;100926.34;;;20.49;68.21
45523;BME280;31254;51.680;5.394;2023-06-19T03:08:16;100947.03;;;20.67;68.11
45523;BME280;31254;51.680;5.394;2023-06-19T03:10:43;100929.13;;;20.56;68.40
45523;BME280;31254;51.680;5.394;2023-06-19T03:13:12;100950.88;;;20.72;68.56
45523;BME280;31254;51.680;5.394;2023-06-19T03:15:40;100926.34;;;20.56;68.50
45523;BME280;31254;51.680;5.394;2023-06-19T03:18:09;100963.44;;;20.75;68.42
45523;BME280;31254;51.680;5.394;2023-06-19T03:20:37;100960.88;;;20.80;68.51
45523;BME280;31254;51.680;5.394;2023-06-19T03:23:03;100968.53;;;20.85;68.15
45523;BME280;31254;51.680;5.394;2023-06-19T03:25:30;100979.19;;;20.88;68.78
45523;BME280;31254;51.680;5.394;2023-06-19T03:28:03;100972.38;;;20.90;68.57
45523;BME280;31254;51.680;5.394;2023-06-19T03:30:31;100966.63;;;20.92;68.60
45523;BME280;31254;51.680;5.394;2023-06-19T03:32:57;100975.38;;;20.89;68.91
45523;BME280;31254;51.680;5.394;2023-06-19T03:35:24;100964.91;;;20.84;69.21
45523;BME280;31254;51.680;5.394;2023-06-19T03:37:51;100982.63;;;20.90;69.27
45523;BME280;31254;51.680;5.394;2023-06-19T03:40:17;100974.94;;;20.85;69.47
45523;BME280;31254;51.680;5.394;2023-06-19T03:42:45;100976.00;;;20.84;69.60
45523;BME280;31254;51.680;5.394;2023-06-19T03:45:14;100975.78;;;20.86;69.57
45523;BME280;31254;51.680;5.394;2023-06-19T03:47:41;100993.50;;;20.91;69.56
45523;BME280;31254;51.680;5.394;2023-06-19T03:50:08;100972.41;;;20.84;69.56
45523;BME280;31254;51.680;5.394;2023-06-19T03:52:49;100996.06;;;20.93;70.10
45523;BME280;31254;51.680;5.394;2023-06-19T03:55:16;100990.94;;;20.90;69.86
45523;BME280;31254;51.680;5.394;2023-06-19T03:57:45;100981.75;;;20.82;70.01
45523;BME280;31254;51.680;5.394;2023-06-19T04:00:15;100982.19;;;20.86;70.35
45523;BME280;31254;51.680;5.394;2023-06-19T04:02:44;101008.00;;;20.93;70.27
45523;BME280;31254;51.680;5.394;2023-06-19T04:05:13;101001.63;;;20.93;70.31
45523;BME280;31254;51.680;5.394;2023-06-19T04:07:42;100995.41;;;20.91;70.53
45523;BME280;31254;51.680;5.394;2023-06-19T04:10:08;100998.81;;;20.86;70.59
45523;BME280;31254;51.680;5.394;2023-06-19T04:12:39;101000.75;;;20.92;70.82
45523;BME280;31254;51.680;5.394;2023-06-19T04:15:07;101006.94;;;20.88;70.94
45523;BME280;31254;51.680;5.394;2023-06-19T04:17:36;101023.34;;;20.96;70.80
45523;BME280;31254;51.680;5.394;2023-06-19T04:20:08;101027.81;;;20.97;70.86
45523;BME280;31254;51.680;5.394;2023-06-19T04:22:39;101035.09;;;20.98;70.86
45523;BME280;31254;51.680;5.394;2023-06-19T04:25:08;101028.66;;;20.97;71.42
45523;BME280;31254;51.680;5.394;2023-06-19T04:27:35;101038.91;;;20.97;71.01
45523;BME280;31254;51.680;5.394;2023-06-19T04:30:03;101033.38;;;20.90;71.48
45523;BME280;31254;51.680;5.394;2023-06-19T04:32:33;101003.09;;;20.75;71.53
45523;BME280;31254;51.680;5.394;2023-06-19T04:35:02;101051.50;;;20.99;71.80
45523;BME280;31254;51.680;5.394;2023-06-19T04:37:29;101044.03;;;21.00;71.99
45523;BME280;31254;51.680;5.394;2023-06-19T04:39:58;101053.41;;;20.99;72.24
45523;BME280;31254;51.680;5.394;2023-06-19T04:42:25;101059.63;;;21.01;72.37
45523;BME280;31254;51.680;5.394;2023-06-19T04:44:53;101051.31;;;21.01;72.58
45523;BME280;31254;51.680;5.394;2023-06-19T04:47:21;101054.28;;;20.99;73.14
45523;BME280;31254;51.680;5.394;2023-06-19T04:49:48;101045.31;;;20.91;73.39
45523;BME280;31254;51.680;5.394;2023-06-19T04:52:17;101063.66;;;20.92;74.22
45523;BME280;31254;51.680;5.394;2023-06-19T04:54:45;101072.19;;;20.90;74.31
45523;BME280;31254;51.680;5.394;2023-06-19T04:57:11;101072.19;;;20.90;75.19
45523;BME280;31254;51.680;5.394;2023-06-19T04:59:42;101063.03;;;20.90;75.04
45523;BME280;31254;51.680;5.394;2023-06-19T05:02:08;101059.19;;;20.91;75.60
45523;BME280;31254;51.680;5.394;2023-06-19T05:04:35;101062.63;;;20.93;75.33
45523;BME280;31254;51.680;5.394;2023-06-19T05:07:05;101048.09;;;20.84;75.35
45523;BME280;31254;51.680;5.394;2023-06-19T05:09:35;101069.63;;;20.95;75.85
45523;BME280;31254;51.680;5.394;2023-06-19T05:12:01;101071.56;;;20.95;75.58
45523;BME280;31254;51.680;5.394;2023-06-19T05:14:28;101059.59;;;20.88;75.82
45523;BME280;31254;51.680;5.394;2023-06-19T05:16:55;101066.44;;;20.92;76.30
45523;BME280;31254;51.680;5.394;2023-06-19T05:19:21;101066.66;;;20.84;76.37
45523;BME280;31254;51.680;5.394;2023-06-19T05:21:48;101076.44;;;20.86;76.52
45523;BME280;31254;51.680;5.394;2023-06-19T05:24:15;101062.38;;;20.81;76.93
45523;BME280;31254;51.680;5.394;2023-06-19T05:26:44;101050.03;;;20.70;76.73
45523;BME280;31254;51.680;5.394;2023-06-19T05:29:10;101077.75;;;20.84;76.80
45523;BME280;31254;51.680;5.394;2023-06-19T05:31:39;101074.56;;;20.80;77.20
45523;BME280;31254;51.680;5.394;2023-06-19T05:34:07;101064.72;;;20.77;77.27
45523;BME280;31254;51.680;5.394;2023-06-19T05:36:34;101088.63;;;20.85;76.86
45523;BME280;31254;51.680;5.394;2023-06-19T05:39:03;101092.66;;;20.82;76.95
45523;BME280;31254;51.680;5.394;2023-06-19T05:41:32;101078.16;;;20.80;77.22
45523;BME280;31254;51.680;5.394;2023-06-19T05:43:59;101086.69;;;20.86;76.87
45523;BME280;31254;51.680;5.394;2023-06-19T05:46:26;101082.22;;;20.98;77.00
45523;BME280;31254;51.680;5.394;2023-06-19T05:48:56;101089.06;;;21.22;76.17
45523;BME280;31254;51.680;5.394;2023-06-19T05:51:23;101075.84;;;21.96;73.85
45523;BME280;31254;51.680;5.394;2023-06-19T05:53:50;101068.06;;;23.76;67.31
45523;BME280;31254;51.680;5.394;2023-06-19T05:56:20;101070.78;;;25.87;61.00
45523;BME280;31254;51.680;5.394;2023-06-19T05:58:47;101082.00;;;27.36;56.88
45523;BME280;31254;51.680;5.394;2023-06-19T06:01:14;101089.41;;;28.53;53.92
45523;BME280;31254;51.680;5.394;2023-06-19T06:03:41;101090.25;;;29.13;52.05
45523;BME280;31254;51.680;5.394;2023-06-19T06:06:07;101080.72;;;28.54;52.90
45523;BME280;31254;51.680;5.394;2023-06-19T06:08:36;101096.25;;;29.22;51.20
45523;BME280;31254;51.680;5.394;2023-06-19T06:11:08;101097.00;;;29.49;49.71
45523;BME280;31254;51.680;5.394;2023-06-19T06:13:34;101100.94;;;28.56;51.83
45523;BME280;31254;51.680;5.394;2023-06-19T06:16:04;101116.59;;;28.25;52.45
45523;BME280;31254;51.680;5.394;2023-06-19T06:18:33;101104.59;;;28.07;52.60
45523;BME280;31254;51.680;5.394;2023-06-19T06:21:00;101115.13;;;28.99;49.83
45523;BME280;31254;51.680;5.394;2023-06-19T06:23:28;101126.03;;;28.95;50.23
45523;BME280;31254;51.680;5.394;2023-06-19T06:25:54;101128.59;;;28.48;50.86
45523;BME280;31254;51.680;5.394;2023-06-19T06:28:28;101123.66;;;28.33;50.77
45523;BME280;31254;51.680;5.394;2023-06-19T06:30:58;101133.41;;;29.71;47.40
45523;BME280;31254;51.680;5.394;2023-06-19T06:33:24;101132.56;;;29.71;47.00
45523;BME280;31254;51.680;5.394;2023-06-19T06:35:59;101118.94;;;30.58;45.03
45523;BME280;31254;51.680;5.394;2023-06-19T06:38:26;101129.09;;;30.80;44.81
45523;BME280;31254;51.680;5.394;2023-06-19T06:40:53;101132.91;;;29.80;46.65
45523;BME280;31254;51.680;5.394;2023-06-19T06:43:22;101139.50;;;29.21;47.75
45523;BME280;31254;51.680;5.394;2023-06-19T06:45:53;101164.94;;;28.15;50.11
45523;BME280;31254;51.680;5.394;2023-06-19T06:48:20;101158.75;;;27.23;52.37
45523;BME280;31254;51.680;5.394;2023-06-19T06:50:47;101154.19;;;26.71;53.25
45523;BME280;31254;51.680;5.394;2023-06-19T06:53:14;101157.34;;;26.22;54.38
45523;BME280;31254;51.680;5.394;2023-06-19T06:55:45;101173.78;;;25.71;55.47
45523;BME280;31254;51.680;5.394;2023-06-19T06:58:12;101181.94;;;25.61;56.10
45523;BME280;31254;51.680;5.394;2023-06-19T07:00:40;101181.19;;;25.30;56.41
45523;BME280;31254;51.680;5.394;2023-06-19T07:03:14;101175.97;;;25.81;54.77
45523;BME280;31254;51.680;5.394;2023-06-19T07:05:41;101183.03;;;26.19;53.64
45523;BME280;31254;51.680;5.394;2023-06-19T07:08:10;101186.41;;;28.04;48.99
45523;BME280;31254;51.680;5.394;2023-06-19T07:10:39;101168.38;;;29.48;45.48
45523;BME280;31254;51.680;5.394;2023-06-19T07:13:06;101181.53;;;30.28;43.34
45523;BME280;31254;51.680;5.394;2023-06-19T07:15:35;101190.44;;;30.68;42.99
45523;BME280;31254;51.680;5.394;2023-06-19T07:18:02;101174.25;;;31.67;40.94
45523;BME280;31254;51.680;5.394;2023-06-19T07:20:29;101189.84;;;30.60;42.17
45523;BME280;31254;51.680;5.394;2023-06-19T07:22:58;101170.69;;;30.52;42.55
45523;BME280;31254;51.680;5.394;2023-06-19T07:25:26;101187.34;;;29.31;45.12
45523;BME280;31254;51.680;5.394;2023-06-19T07:27:53;101200.78;;;28.74;46.14
45523;BME280;31254;51.680;5.394;2023-06-19T07:30:22;101189.25;;;30.48;42.99
45523;BME280;31254;51.680;5.394;2023-06-19T07:32:51;101202.84;;;30.82;41.91
45523;BME280;31254;51.680;5.394;2023-06-19T07:35:18;101188.88;;;31.75;39.53
45523;BME280;31254;51.680;5.394;2023-06-19T07:37:45;101202.59;;;32.28;39.03
45523;BME280;31254;51.680;5.394;2023-06-19T07:40:14;101207.97;;;33.34;36.85
45523;BME280;31254;51.680;5.394;2023-06-19T07:42:43;101213.88;;;32.98;37.65
45523;BME280;31254;51.680;5.394;2023-06-19T07:45:15;101212.06;;;33.18;37.49
45523;BME280;31254;51.680;5.394;2023-06-19T07:47:42;101204.41;;;31.72;40.04
45523;BME280;31254;51.680;5.394;2023-06-19T07:50:09;101190.84;;;31.02;40.42
45523;BME280;31254;51.680;5.394;2023-06-19T07:52:36;101220.84;;;30.76;41.39
45523;BME280;31254;51.680;5.394;2023-06-19T07:55:02;101219.50;;;32.33;38.62
45523;BME280;31254;51.680;5.394;2023-06-19T07:57:29;101209.16;;;32.78;36.90
45523;BME280;31254;51.680;5.394;2023-06-19T07:59:59;101220.19;;;31.83;39.16
45523;BME280;31254;51.680;5.394;2023-06-19T08:02:26;101225.97;;;32.43;37.54
45523;BME280;31254;51.680;5.394;2023-06-19T08:04:54;101222.84;;;33.05;36.27
45523;BME280;31254;51.680;5.394;2023-06-19T08:07:21;101218.13;;;32.25;37.99
45523;BME280;31254;51.680;5.394;2023-06-19T08:09:47;101199.31;;;31.38;38.92
45523;BME280;31254;51.680;5.394;2023-06-19T08:12:30;101238.47;;;30.40;40.74
45523;BME280;31254;51.680;5.394;2023-06-19T08:14:56;101248.63;;;30.04;41.45
45523;BME280;31254;51.680;5.394;2023-06-19T08:17:25;101240.44;;;29.32;42.67
45523;BME280;31254;51.680;5.394;2023-06-19T08:19:54;101242.03;;;29.83;41.73
45523;BME280;31254;51.680;5.394;2023-06-19T08:22:26;101250.19;;;29.84;41.70
45523;BME280;31254;51.680;5.394;2023-06-19T08:24:57;101245.56;;;31.52;38.26
45523;BME280;31254;51.680;5.394;2023-06-19T08:27:24;101243.75;;;32.44;36.88
45523;BME280;31254;51.680;5.394;2023-06-19T08:29:51;101235.81;;;33.16;35.53
45523;BME280;31254;51.680;5.394;2023-06-19T08:32:18;101236.22;;;32.89;35.31
45523;BME280;31254;51.680;5.394;2023-06-19T08:34:44;101232.28;;;32.90;35.33
45523;BME280;31254;51.680;5.394;2023-06-19T08:37:11;101240.41;;;32.97;35.59
45523;BME280;31254;51.680;5.394;2023-06-19T08:39:42;101209.22;;;33.12;34.98
45523;BME280;31254;51.680;5.394;2023-06-19T08:42:12;101230.16;;;33.11;35.04
45523;BME280;31254;51.680;5.394;2023-06-19T08:44:39;101251.78;;;32.87;35.95
45523;BME280;31254;51.680;5.394;2023-06-19T08:47:08;101244.28;;;32.46;36.85
45523;BME280;31254;51.680;5.394;2023-06-19T08:49:36;101240.75;;;31.84;37.40
45523;BME280;31254;51.680;5.394;2023-06-19T08:52:03;101253.53;;;30.82;39.22
45523;BME280;31254;51.680;5.394;2023-06-19T08:54:33;101253.09;;;30.37;40.23
45523;BME280;31254;51.680;5.394;2023-06-19T08:57:01;101250.72;;;30.87;39.20
45523;BME280;31254;51.680;5.394;2023-06-19T08:59:31;101253.81;;;30.75;39.20
45523;BME280;31254;51.680;5.394;2023-06-19T09:01:58;101252.31;;;31.46;37.62
45523;BME280;31254;51.680;5.394;2023-06-19T09:04:26;101251.47;;;32.13;36.77
45523;BME280;31254;51.680;5.394;2023-06-19T09:06:56;101245.25;;;31.90;36.98
45523;BME280;31254;51.680;5.394;2023-06-19T09:09:25;101254.41;;;33.23;35.32
45523;BME280;31254;51.680;5.394;2023-06-19T09:12:03;101252.34;;;33.39;34.82
45523;BME280;31254;51.680;5.394;2023-06-19T09:14:41;101279.81;;;33.73;34.15
45523;BME280;31254;51.680;5.394;2023-06-19T09:19:53;101289.38;;;32.77;35.49
45523;BME280;31254;51.680;5.394;2023-06-19T09:22:25;101284.88;;;32.76;34.99
45523;BME280;31254;51.680;5.394;2023-06-19T09:24:52;101293.28;;;32.86;35.08
45523;BME280;31254;51.680;5.394;2023-06-19T09:27:19;101268.53;;;32.57;35.28
45523;BME280;31254;51.680;5.394;2023-06-19T09:29:48;101258.25;;;31.96;36.01
45523;BME280;31254;51.680;5.394;2023-06-19T09:32:27;101287.84;;;31.58;37.16
45523;BME280;31254;51.680;5.394;2023-06-19T09:34:56;101296.59;;;32.18;35.93
45523;BME280;31254;51.680;5.394;2023-06-19T09:37:30;101298.41;;;32.79;35.15
45523;BME280;31254;51.680;5.394;2023-06-19T09:40:00;101295.28;;;32.86;34.86
45523;BME280;31254;51.680;5.394;2023-06-19T09:42:30;101303.66;;;33.01;34.64
45523;BME280;31254;51.680;5.394;2023-06-19T09:45:05;101299.28;;;32.74;35.45
45523;BME280;31254;51.680;5.394;2023-06-19T09:50:00;101298.00;;;31.74;36.75
45523;BME280;31254;51.680;5.394;2023-06-19T09:52:32;101301.91;;;32.45;35.69
45523;BME280;31254;51.680;5.394;2023-06-19T09:55:03;101301.06;;;32.44;35.60
45523;BME280;31254;51.680;5.394;2023-06-19T09:57:35;101305.28;;;32.42;35.58
45523;BME280;31254;51.680;5.394;2023-06-19T10:00:06;101304.50;;;32.16;36.49
45523;BME280;31254;51.680;5.394;2023-06-19T10:02:44;101306.19;;;32.22;36.64
45523;BME280;31254;51.680;5.394;2023-06-19T10:05:11;101297.72;;;32.12;36.70
45523;BME280;31254;51.680;5.394;2023-06-19T10:07:43;101303.91;;;32.03;36.42
45523;BME280;31254;51.680;5.394;2023-06-19T10:10:30;101302.50;;;32.06;36.29
45523;BME280;31254;51.680;5.394;2023-06-19T10:13:12;101291.22;;;31.90;36.55
45523;BME280;31254;51.680;5.394;2023-06-19T10:15:44;101314.38;;;31.67;36.39
45523;BME280;31254;51.680;5.394;2023-06-19T10:18:15;101309.84;;;32.02;36.25
45523;BME280;31254;51.680;5.394;2023-06-19T10:20:43;101275.75;;;31.67;36.04
45523;BME280;31254;51.680;5.394;2023-06-19T10:25:48;101298.88;;;31.85;36.30
45523;BME280;31254;51.680;5.394;2023-06-19T10:28:20;101301.66;;;32.05;36.15
45523;BME280;31254;51.680;5.394;2023-06-19T10:33:28;101299.13;;;31.99;35.83
45523;BME280;31254;51.680;5.394;2023-06-19T10:35:55;101305.59;;;31.89;36.17
45523;BME280;31254;51.680;5.394;2023-06-19T10:38:22;101301.91;;;31.47;36.29
45523;BME280;31254;51.680;5.394;2023-06-19T10:40:51;101307.88;;;31.56;36.32
45523;BME280;31254;51.680;5.394;2023-06-19T10:43:25;101310.13;;;31.75;35.80
45523;BME280;31254;51.680;5.394;2023-06-19T10:45:57;101295.75;;;31.56;35.92
45523;BME280;31254;51.680;5.394;2023-06-19T10:48:25;101294.81;;;31.24;36.91
45523;BME280;31254;51.680;5.394;2023-06-19T10:50:52;101320.72;;;31.21;36.87
45523;BME280;31254;51.680;5.394;2023-06-19T10:53:31;101315.38;;;31.20;36.87
45523;BME280;31254;51.680;5.394;2023-06-19T10:56:01;101295.09;;;31.23;37.00
45523;BME280;31254;51.680;5.394;2023-06-19T10:58:29;101273.41;;;31.39;36.74
45523;BME280;31254;51.680;5.394;2023-06-19T11:00:58;101305.03;;;31.66;36.51
45523;BME280;31254;51.680;5.394;2023-06-19T11:03:24;101310.13;;;31.64;36.17
45523;BME280;31254;51.680;5.394;2023-06-19T11:05:54;101294.25;;;31.38;36.42
45523;BME280;31254;51.680;5.394;2023-06-19T11:08:22;101293.38;;;31.16;36.57
45523;BME280;31254;51.680;5.394;2023-06-19T11:10:50;101316.22;;;31.20;36.52
45523;BME280;31254;51.680;5.394;2023-06-19T11:13:18;101304.97;;;31.30;36.69
45523;BME280;31254;51.680;5.394;2023-06-19T11:15:47;101306.47;;;31.59;36.05
45523;BME280;31254;51.680;5.394;2023-06-19T11:18:19;101307.88;;;31.82;35.97
45523;BME280;31254;51.680;5.394;2023-06-19T11:20:51;101301.97;;;31.78;36.15
45523;BME280;31254;51.680;5.394;2023-06-19T11:23:28;101297.44;;;31.57;36.16
45523;BME280;31254;51.680;5.394;2023-06-19T11:26:05;101301.94;;;31.73;35.81
45523;BME280;31254;51.680;5.394;2023-06-19T11:28:33;101305.03;;;32.02;35.82
45523;BME280;31254;51.680;5.394;2023-06-19T11:31:01;101307.28;;;32.26;34.59
45523;BME280;31254;51.680;5.394;2023-06-19T11:33:30;101303.38;;;32.22;34.84
45523;BME280;31254;51.680;5.394;2023-06-19T11:36:00;101303.38;;;32.22;35.23
45523;BME280;31254;51.680;5.394;2023-06-19T11:38:28;101307.31;;;32.21;34.83
45523;BME280;31254;51.680;5.394;2023-06-19T11:40:55;101282.75;;;32.06;35.68
45523;BME280;31254;51.680;5.394;2023-06-19T11:43:32;101288.38;;;32.26;34.77
45523;BME280;31254;51.680;5.394;2023-06-19T11:46:03;101280.16;;;32.46;35.00
45523;BME280;31254;51.680;5.394;2023-06-19T11:48:30;101277.56;;;32.70;34.21
45523;BME280;31254;51.680;5.394;2023-06-19T11:50:59;101290.56;;;32.71;34.19
45523;BME280;31254;51.680;5.394;2023-06-19T11:53:26;101294.16;;;32.87;34.26
45523;BME280;31254;51.680;5.394;2023-06-19T11:55:55;101290.47;;;32.86;33.86
45523;BME280;31254;51.680;5.394;2023-06-19T11:58:22;101271.09;;;32.64;34.20
45523;BME280;31254;51.680;5.394;2023-06-19T12:00:49;101290.00;;;32.53;33.91
45523;BME280;31254;51.680;5.394;2023-06-19T12:03:16;101281.91;;;32.05;33.92
45523;BME280;31254;51.680;5.394;2023-06-19T12:05:43;101243.88;;;31.62;34.74
45523;BME280;31254;51.680;5.394;2023-06-19T12:08:12;101273.50;;;31.80;34.29
45523;BME280;31254;51.680;5.394;2023-06-19T12:10:41;101278.53;;;31.93;34.37
45523;BME280;31254;51.680;5.394;2023-06-19T12:13:11;101281.66;;;32.12;34.45
45523;BME280;31254;51.680;5.394;2023-06-19T12:15:40;101267.50;;;32.07;33.84
45523;BME280;31254;51.680;5.394;2023-06-19T12:18:06;101277.66;;;32.34;34.01
45523;BME280;31254;51.680;5.394;2023-06-19T12:20:34;101272.63;;;32.20;33.46
45523;BME280;31254;51.680;5.394;2023-06-19T12:23:03;101278.53;;;32.03;34.10
45523;BME280;31254;51.680;5.394;2023-06-19T12:25:32;101260.50;;;31.89;34.13
45523;BME280;31254;51.680;5.394;2023-06-19T12:27:59;101260.75;;;31.51;34.27
45523;BME280;31254;51.680;5.394;2023-06-19T12:30:25;101301.59;;;31.39;34.48
45523;BME280;31254;51.680;5.394;2023-06-19T12:32:54;101291.16;;;31.24;34.64
45523;BME280;31254;51.680;5.394;2023-06-19T12:35:21;101251.34;;;30.94;34.18
45523;BME280;31254;51.680;5.394;2023-06-19T12:37:51;101294.28;;;31.43;34.12
45523;BME280;31254;51.680;5.394;2023-06-19T12:40:18;101296.78;;;31.29;34.56
45523;BME280;31254;51.680;5.394;2023-06-19T12:42:48;101275.09;;;31.24;33.71
45523;BME280;31254;51.680;5.394;2023-06-19T12:45:16;101285.53;;;31.29;34.20
45523;BME280;31254;51.680;5.394;2023-06-19T12:47:43;101290.59;;;31.22;33.86
45523;BME280;31254;51.680;5.394;2023-06-19T12:50:12;101291.75;;;31.46;33.48
45523;BME280;31254;51.680;5.394;2023-06-19T12:52:39;101282.47;;;31.51;33.66
45523;BME280;31254;51.680;5.394;2023-06-19T12:55:08;101285.31;;;31.66;33.41
45523;BME280;31254;51.680;5.394;2023-06-19T12:57:35;101284.19;;;31.67;32.95
45523;BME280;31254;51.680;5.394;2023-06-19T13:00:02;101269.50;;;31.40;33.30
45523;BME280;31254;51.680;5.394;2023-06-19T13:02:32;101278.22;;;31.38;33.56
45523;BME280;31254;51.680;5.394;2023-06-19T13:04:59;101278.50;;;31.42;33.17
45523;BME280;31254;51.680;5.394;2023-06-19T13:07:26;101270.88;;;31.42;32.96
45523;BME280;31254;51.680;5.394;2023-06-19T13:09:58;101251.44;;;31.15;33.47
45523;BME280;31254;51.680;5.394;2023-06-19T13:12:25;101274.84;;;31.46;32.86
45523;BME280;31254;51.680;5.394;2023-06-19T13:14:54;101273.19;;;31.61;33.87
45523;BME280;31254;51.680;5.394;2023-06-19T13:17:21;101266.09;;;31.38;33.62